This is the latest recevied weather packets stored in our database for station/object W4CKA. If no packets are shown the sender has not sent any weather packets the latest 10 day(s).
| Time | Temp. | Humidity | Pressure | Rain* | Wind** | Luminosity | Snow |
|---|---|---|---|---|---|---|---|
| 1777613973 | 6.67° C | 90% | 1057.7 hPa | 0 mm | - | 0 W/m² | - |
| 1777613373 | 6.67° C | 90% | 1057.8 hPa | 0 mm | - | 0 W/m² | - |
| 1777612771 | 6.67° C | 89% | 1057.5 hPa | 0 mm | - | 0 W/m² | - |
| 1777612168 | 6.67° C | 87% | 1057.7 hPa | 0 mm | - | 0 W/m² | - |
| 1777611566 | 7.22° C | 86% | 1057.7 hPa | 0 mm | - | 0 W/m² | - |
| 1777610965 | 7.22° C | 85% | 1057.8 hPa | 0 mm | - | 0 W/m² | - |
| 1777610366 | 7.22° C | 87% | 1057.8 hPa | 0 mm | - | 0 W/m² | - |
| 1777609765 | 6.67° C | 89% | 1057.7 hPa | 0 mm | - | 0 W/m² | - |
| 1777609165 | 6.67° C | 87% | 1057.6 hPa | 0 mm | - | 0 W/m² | - |
| 1777608565 | 7.22° C | 84% | 1057.5 hPa | 0 mm | - | 0 W/m² | - |
| 1777607960 | 7.78° C | 82% | 1057.5 hPa | 0 mm | - | 0 W/m² | - |
| 1777607358 | 7.22° C | 86% | 1057.3 hPa | 0 mm | - | 0 W/m² | - |
| 1777606756 | 7.78° C | 82% | 1057.6 hPa | 0 mm | - | 0 W/m² | - |
| 1777606152 | 7.78° C | 84% | 1057.5 hPa | 0 mm | - | 0 W/m² | - |
| 1777605549 | 7.78° C | 82% | 1057.4 hPa | 0 mm | - | 0 W/m² | - |
| 1777604947 | 9.44° C | 74% | 1057.5 hPa | 0 mm | - | 0 W/m² | - |
| 1777604345 | 9.44° C | 73% | 1057.4 hPa | 0 mm | - | 0 W/m² | - |
| 1777603742 | 10° C | 71% | 1057.3 hPa | 0 mm | - | 0 W/m² | - |
| 1777603140 | 9.44° C | 75% | 1057.1 hPa | 0 mm | - | 0 W/m² | - |
| 1777602536 | 11.11° C | 67% | 1057.2 hPa | 0 mm | - | 0 W/m² | - |
| 1777601935 | 10.56° C | 70% | 1057.1 hPa | 0 mm | - | 0 W/m² | - |
| 1777601330 | 10.56° C | 68% | 1057 hPa | 0 mm | - | 0 W/m² | - |
| 1777600730 | 10.56° C | 68% | 1057 hPa | 0 mm | - | 0 W/m² | - |
| 1777600128 | 11.11° C | 67% | 1056.6 hPa | 0 mm | - | 0 W/m² | - |
| 1777599525 | 11.11° C | 65% | 1056.6 hPa | 0 mm | - | 0 W/m² | - |
* Rain latest hour (hover to see other rain measurements)
** Current wind speed in m/s (hover to see current wind gust speed)